Time,TemperatureF,DewpointF,PressureIn,WindDirection,WindDirectionDegrees,WindSpeedMPH,WindSpeedGustMPH,Humidity,HourlyPrecipIn,Conditions,Clouds,dailyrainin,SolarRadiationWatts/m^2,SoftwareType,DateUTC
2013-08-09 00:02:00,66.0,62.0,-100.00,ENE,66,0.0,0.0,88,0.00,,,0.00,0.000000,,2013-08-09 05:02:00,
2013-08-09 00:33:00,65.0,63.0,-100.00,South,171,0.0,0.0,92,0.00,,,0.00,0.000000,,2013-08-09 05:33:00,
2013-08-09 00:43:00,65.0,63.0,-100.00,South,171,0.0,0.0,92,0.00,,,0.00,0.000000,,2013-08-09 05:43:00,
2013-08-09 00:52:00,65.0,63.0,-100.00,South,171,0.0,0.0,92,0.00,,,0.00,0.000000,,2013-08-09 05:52:00,
2013-08-09 01:01:00,65.0,63.0,-100.00,South,171,0.0,0.0,92,0.00,,,0.00,0.000000,,2013-08-09 06:01:00,
2013-08-09 01:32:00,65.0,62.0,-100.00,SW,231,0.0,4.0,90,0.00,,,0.00,0.000000,,2013-08-09 06:32:00,
2013-08-09 01:43:00,65.0,62.0,-100.00,SW,231,0.0,4.0,90,0.00,,,0.00,0.000000,,2013-08-09 06:43:00,
2013-08-09 01:52:00,65.0,62.0,-100.00,SW,231,0.0,4.0,90,0.00,,,0.00,0.000000,,2013-08-09 06:52:00,
2013-08-09 02:01:00,65.0,62.0,-100.00,SW,231,0.0,4.0,90,0.00,,,0.00,0.000000,,2013-08-09 07:01:00,
2013-08-09 02:33:00,65.0,61.0,-100.00,SSW,211,1.0,3.0,86,0.00,,,0.00,0.000000,,2013-08-09 07:33:00,
2013-08-09 02:43:00,65.0,61.0,-100.00,SSW,211,1.0,3.0,86,0.00,,,0.00,0.000000,,2013-08-09 07:43:00,
2013-08-09 02:53:00,65.0,61.0,-100.00,SSW,211,1.0,3.0,86,0.00,,,0.00,0.000000,,2013-08-09 07:53:00,
2013-08-09 03:02:00,65.0,61.0,-100.00,SSW,211,1.0,3.0,86,0.00,,,0.00,0.000000,,2013-08-09 08:02:00,
2013-08-09 03:32:00,64.0,61.0,-100.00,West,281,0.0,2.0,91,0.00,,,0.00,0.000000,,2013-08-09 08:32:00,
2013-08-09 03:43:00,64.0,61.0,-100.00,West,281,0.0,2.0,91,0.00,,,0.00,0.000000,,2013-08-09 08:43:00,
2013-08-09 03:53:00,64.0,61.0,-100.00,West,281,0.0,2.0,91,0.00,,,0.00,0.000000,,2013-08-09 08:53:00,
2013-08-09 04:02:00,64.0,61.0,-100.00,West,281,0.0,2.0,91,0.00,,,0.00,0.000000,,2013-08-09 09:02:00,
2013-08-09 04:32:00,63.0,61.0,-100.00,WNW,290,0.0,0.0,94,0.00,,,0.00,0.000000,,2013-08-09 09:32:00,
2013-08-09 04:43:00,63.0,61.0,-100.00,WNW,290,0.0,0.0,94,0.00,,,0.00,0.000000,,2013-08-09 09:43:00,
2013-08-09 04:52:00,63.0,61.0,-100.00,WNW,290,0.0,0.0,94,0.00,,,0.00,0.000000,,2013-08-09 09:52:00,
2013-08-09 05:01:00,63.0,61.0,-100.00,WNW,290,0.0,0.0,94,0.00,,,0.00,0.000000,,2013-08-09 10:01:00,
2013-08-09 05:32:00,63.0,62.0,-100.00,West,274,0.0,4.0,98,0.00,,,-99.99,0.000000,,2013-08-09 10:32:00,
2013-08-09 05:43:00,63.0,62.0,-100.00,West,274,0.0,4.0,98,0.00,,,-99.99,0.000000,,2013-08-09 10:43:00,
2013-08-09 05:53:00,63.0,62.0,-100.00,West,274,0.0,4.0,98,0.00,,,-99.99,0.000000,,2013-08-09 10:53:00,
2013-08-09 06:02:00,63.0,62.0,-100.00,West,274,0.0,4.0,98,0.00,,,-99.99,0.000000,,2013-08-09 11:02:00,
2013-08-09 06:33:00,62.0,62.0,-100.00,West,259,0.0,3.0,99,0.00,,,0.00,0.000000,,2013-08-09 11:33:00,
2013-08-09 06:43:00,62.0,62.0,-100.00,West,259,0.0,3.0,99,0.00,,,0.00,0.000000,,2013-08-09 11:43:00,
2013-08-09 06:53:00,62.0,62.0,-100.00,West,259,0.0,3.0,99,0.00,,,0.00,0.000000,,2013-08-09 11:53:00,
2013-08-09 07:02:00,62.0,62.0,-100.00,West,259,0.0,3.0,99,0.00,,,0.00,0.000000,,2013-08-09 12:02:00,
2013-08-09 07:32:00,63.0,62.0,-100.00,WNW,297,2.0,4.0,96,0.00,,,0.00,20.000000,,2013-08-09 12:32:00,
2013-08-09 07:43:00,63.0,62.0,-100.00,WNW,297,2.0,4.0,96,0.00,,,0.00,20.000000,,2013-08-09 12:43:00,
2013-08-09 07:52:00,63.0,62.0,-100.00,WNW,297,2.0,4.0,96,0.00,,,0.00,20.000000,,2013-08-09 12:52:00,
2013-08-09 08:01:00,63.0,62.0,-100.00,WNW,297,2.0,4.0,96,0.00,,,0.00,20.000000,,2013-08-09 13:01:00,
2013-08-09 08:32:00,68.0,63.0,-100.00,NW,308,4.0,6.0,85,0.00,,,0.00,129.000000,,2013-08-09 13:32:00,
2013-08-09 08:43:00,68.0,63.0,-100.00,NW,308,4.0,6.0,85,0.00,,,0.00,129.000000,,2013-08-09 13:43:00,
2013-08-09 08:52:00,68.0,63.0,-100.00,NW,308,4.0,6.0,85,0.00,,,0.00,129.000000,,2013-08-09 13:52:00,
2013-08-09 09:02:00,68.0,63.0,-100.00,NW,308,4.0,6.0,85,0.00,,,0.00,129.000000,,2013-08-09 14:02:00,
2013-08-09 09:33:00,72.0,65.0,-100.00,NW,313,3.0,6.0,78,0.00,,,0.00,226.000000,,2013-08-09 14:33:00,
2013-08-09 09:43:00,72.0,65.0,-100.00,NW,313,3.0,6.0,78,0.00,,,0.00,226.000000,,2013-08-09 14:43:00,
2013-08-09 09:53:00,72.0,65.0,-100.00,NW,313,3.0,6.0,78,0.00,,,0.00,226.000000,,2013-08-09 14:53:00,
2013-08-09 10:02:00,72.0,65.0,-100.00,NW,313,3.0,6.0,78,0.00,,,0.00,226.000000,,2013-08-09 15:02:00,
2013-08-09 10:33:00,75.0,64.0,-100.00,NW,320,2.0,6.0,69,0.00,,,0.00,300.000000,,2013-08-09 15:33:00,
2013-08-09 10:44:00,75.0,64.0,-100.00,NW,320,2.0,6.0,69,0.00,,,0.00,300.000000,,2013-08-09 15:44:00,
2013-08-09 10:53:00,75.0,64.0,-100.00,NW,320,2.0,6.0,69,0.00,,,0.00,300.000000,,2013-08-09 15:53:00,
2013-08-09 11:01:00,75.0,64.0,-100.00,NW,320,2.0,6.0,69,0.00,,,0.00,300.000000,,2013-08-09 16:01:00,
2013-08-09 11:32:00,79.0,65.0,-100.00,NW,315,5.0,7.0,63,0.00,,,0.00,465.000000,,2013-08-09 16:32:00,
2013-08-09 11:43:00,79.0,65.0,-100.00,NW,315,5.0,7.0,63,0.00,,,0.00,465.000000,,2013-08-09 16:43:00,
2013-08-09 11:53:00,79.0,65.0,-100.00,NW,315,5.0,7.0,63,0.00,,,0.00,465.000000,,2013-08-09 16:53:00,
2013-08-09 12:02:00,79.0,65.0,-100.00,NW,315,5.0,7.0,63,0.00,,,0.00,465.000000,,2013-08-09 17:02:00,
2013-08-09 12:33:00,80.0,64.0,-100.00,NW,322,5.0,9.0,59,0.00,,,0.00,532.000000,,2013-08-09 17:33:00,
2013-08-09 12:43:00,80.0,64.0,-100.00,NW,322,5.0,9.0,59,0.00,,,0.00,532.000000,,2013-08-09 17:43:00,
2013-08-09 12:52:00,80.0,64.0,-100.00,NW,322,5.0,9.0,59,0.00,,,0.00,532.000000,,2013-08-09 17:52:00,
2013-08-09 13:01:00,80.0,64.0,-100.00,NW,322,5.0,9.0,59,0.00,,,0.00,532.000000,,2013-08-09 18:01:00,
2013-08-09 13:32:00,82.0,61.0,-100.00,NW,308,4.0,10.0,50,0.00,,,0.00,625.000000,,2013-08-09 18:32:00,
2013-08-09 13:43:00,82.0,61.0,-100.00,NW,308,4.0,10.0,50,0.00,,,0.00,625.000000,,2013-08-09 18:43:00,
2013-08-09 13:53:00,82.0,61.0,-100.00,NW,308,4.0,10.0,50,0.00,,,0.00,625.000000,,2013-08-09 18:53:00,
2013-08-09 14:02:00,82.0,61.0,-100.00,NW,308,4.0,10.0,50,0.00,,,0.00,625.000000,,2013-08-09 19:02:00,
2013-08-09 14:32:00,84.0,64.0,-100.00,NW,321,4.0,9.0,52,0.00,,,0.00,716.000000,,2013-08-09 19:32:00,
2013-08-09 14:43:00,84.0,64.0,-100.00,NW,321,4.0,9.0,52,0.00,,,0.00,716.000000,,2013-08-09 19:43:00,
2013-08-09 14:52:00,84.0,64.0,-100.00,NW,321,4.0,9.0,52,0.00,,,0.00,716.000000,,2013-08-09 19:52:00,
2013-08-09 15:02:00,84.0,64.0,-100.00,NW,321,4.0,9.0,52,0.00,,,0.00,716.000000,,2013-08-09 20:02:00,
2013-08-09 15:32:00,81.0,65.0,-100.00,North,2,4.0,8.0,59,0.00,,,0.00,367.000000,,2013-08-09 20:32:00,
2013-08-09 15:43:00,81.0,65.0,-100.00,North,2,4.0,8.0,59,0.00,,,0.00,367.000000,,2013-08-09 20:43:00,
2013-08-09 15:52:00,81.0,65.0,-100.00,North,2,4.0,8.0,59,0.00,,,0.00,367.000000,,2013-08-09 20:52:00,
2013-08-09 16:01:00,81.0,65.0,-100.00,North,2,4.0,8.0,59,0.00,,,0.00,367.000000,,2013-08-09 21:01:00,
2013-08-09 16:33:00,76.0,68.0,-100.00,NNE,23,5.0,12.0,76,0.00,,,0.00,179.000000,,2013-08-09 21:33:00,
2013-08-09 16:43:00,76.0,68.0,-100.00,NNE,23,5.0,12.0,76,0.00,,,0.00,179.000000,,2013-08-09 21:43:00,
2013-08-09 16:52:00,76.0,68.0,-100.00,NNE,23,5.0,12.0,76,0.00,,,0.00,179.000000,,2013-08-09 21:52:00,
2013-08-09 17:01:00,76.0,68.0,-100.00,NNE,23,5.0,12.0,76,0.00,,,0.00,179.000000,,2013-08-09 22:01:00,
2013-08-09 17:32:00,76.0,67.0,-100.00,SW,214,4.0,9.0,75,0.00,,,0.00,190.000000,,2013-08-09 22:32:00,
2013-08-09 17:43:00,76.0,67.0,-100.00,SW,214,4.0,9.0,75,0.00,,,0.00,190.000000,,2013-08-09 22:43:00,
2013-08-09 17:52:00,76.0,67.0,-100.00,SW,214,4.0,9.0,75,0.00,,,0.00,190.000000,,2013-08-09 22:52:00,
2013-08-09 18:01:00,76.0,67.0,-100.00,SW,214,4.0,9.0,75,0.00,,,0.00,190.000000,,2013-08-09 23:01:00,
2013-08-09 18:32:00,76.0,67.0,-100.00,WSW,240,3.0,5.0,74,0.00,,,0.00,146.000000,,2013-08-09 23:32:00,
2013-08-09 18:43:00,76.0,67.0,-100.00,WSW,240,3.0,5.0,74,0.00,,,0.00,146.000000,,2013-08-09 23:43:00,
2013-08-09 18:52:00,76.0,67.0,-100.00,WSW,240,3.0,5.0,74,0.00,,,0.00,146.000000,,2013-08-09 23:52:00,
2013-08-09 19:01:00,76.0,67.0,-100.00,WSW,240,3.0,5.0,74,0.00,,,0.00,146.000000,,2013-08-10 00:01:00,
2013-08-09 19:33:00,75.0,63.0,-100.00,North,3,4.0,7.0,67,0.00,,,0.00,108.000000,,2013-08-10 00:33:00,
2013-08-09 19:43:00,75.0,63.0,-100.00,North,3,4.0,7.0,67,0.00,,,0.00,108.000000,,2013-08-10 00:43:00,
2013-08-09 19:53:00,75.0,63.0,-100.00,North,3,4.0,7.0,67,0.00,,,0.00,108.000000,,2013-08-10 00:53:00,
2013-08-09 20:01:00,75.0,63.0,-100.00,North,3,4.0,7.0,67,0.00,,,0.00,108.000000,,2013-08-10 01:01:00,
2013-08-09 20:32:00,72.0,62.0,-100.00,NNE,30,3.0,6.0,71,0.00,,,0.00,40.000000,,2013-08-10 01:32:00,
2013-08-09 20:43:00,72.0,62.0,-100.00,NNE,30,3.0,6.0,71,0.00,,,0.00,40.000000,,2013-08-10 01:43:00,
2013-08-09 20:52:00,72.0,62.0,-100.00,NNE,30,3.0,6.0,71,0.00,,,0.00,40.000000,,2013-08-10 01:52:00,
2013-08-09 21:03:00,72.0,62.0,-100.00,NNE,30,3.0,6.0,71,0.00,,,0.00,40.000000,,2013-08-10 02:03:00,
2013-08-09 21:32:00,70.0,61.0,-100.00,NNE,14,5.0,9.0,74,0.00,,,0.00,2.000000,,2013-08-10 02:32:00,
2013-08-09 21:42:00,70.0,61.0,-100.00,NNE,14,5.0,9.0,74,0.00,,,0.00,2.000000,,2013-08-10 02:42:00,
2013-08-09 21:52:00,70.0,61.0,-100.00,NNE,14,5.0,9.0,74,0.00,,,0.00,2.000000,,2013-08-10 02:52:00,
2013-08-09 22:01:00,70.0,61.0,-100.00,NNE,14,5.0,9.0,74,0.00,,,0.00,2.000000,,2013-08-10 03:01:00,
2013-08-09 22:32:00,68.0,59.0,-100.00,NNE,23,3.0,7.0,72,0.00,,,0.00,0.000000,,2013-08-10 03:32:00,
2013-08-09 22:42:00,68.0,59.0,-100.00,NNE,23,3.0,7.0,72,0.00,,,0.00,0.000000,,2013-08-10 03:42:00,
2013-08-09 22:52:00,68.0,59.0,-100.00,NNE,23,3.0,7.0,72,0.00,,,0.00,0.000000,,2013-08-10 03:52:00,
2013-08-09 23:02:00,68.0,59.0,-100.00,NNE,23,3.0,7.0,72,0.00,,,0.00,0.000000,,2013-08-10 04:02:00,
2013-08-09 23:32:00,67.0,58.0,-100.00,North,8,4.0,6.0,73,0.00,,,0.00,0.000000,,2013-08-10 04:32:00,
2013-08-09 23:43:00,67.0,58.0,-100.00,North,8,4.0,6.0,73,0.00,,,0.00,0.000000,,2013-08-10 04:43:00,
2013-08-09 23:53:00,67.0,58.0,-100.00,North,8,4.0,6.0,73,0.00,,,0.00,0.000000,,2013-08-10 04:53:00,